Time;durP1;ratioP1;P1;durP2;ratioP2;P2;SDS_P1;SDS_P2;PMS_P1;PMS_P2;Temp;Humidity;BMP_temperature;BMP_pressure;BME280_temperature;BME280_humidity;BME280_pressure;Samples;Min_cycle;Max_cycle;Signal;HPM_P1;HPM_P2
2024/03/25 00:01:55;;;;;;;0.25;0.25;;;;;;;-139.19;100.00;56970.53;5075346;28;20037;-69
2024/03/25 00:05:22;;;;;;;0.10;0.10;;;;;;;-139.19;100.00;56970.53;5075141;28;20111;-69
2024/03/25 00:08:47;;;;;;;0.10;0.10;;;;;;;-139.19;100.00;56970.53;5074907;28;20037;-69
2024/03/25 00:12:11;;;;;;;0.20;0.20;;;;;;;-139.19;100.00;56970.53;5074735;28;20028;-69
2024/03/25 00:15:37;;;;;;;0.10;0.10;;;;;;;-139.19;100.00;56970.53;5074860;28;20035;-69
2024/03/25 00:19:01;;;;;;;0.00;0.00;;;;;;;-139.19;100.00;56970.53;5074670;28;20108;-69
2024/03/25 00:22:25;;;;;;;0.55;0.55;;;;;;;-139.19;100.00;56970.53;5089767;28;20036;-69
2024/03/25 00:25:50;;;;;;;0.00;0.00;;;;;;;-139.19;100.00;56970.53;5094777;28;20074;-69
2024/03/25 00:29:14;;;;;;;0.10;0.10;;;;;;;-139.19;100.00;56970.53;5095057;28;20020;-69
2024/03/25 00:32:38;;;;;;;0.10;0.10;;;;;;;-139.19;100.00;56970.53;5094945;28;20055;-69
2024/03/25 00:36:02;;;;;;;0.25;0.25;;;;;;;-139.19;100.00;56970.53;5094817;28;20055;-69
2024/03/25 00:39:26;;;;;;;0.10;0.10;;;;;;;-139.19;100.00;56970.53;5079593;28;20037;-69
2024/03/25 00:42:51;;;;;;;0.45;0.43;;;;;;;-139.19;100.00;56970.53;5074298;28;20033;-69
2024/03/25 00:46:14;;;;;;;0.20;0.20;;;;;;;-139.19;100.00;56970.53;5072889;28;20127;-69
2024/03/25 00:49:38;;;;;;;0.20;0.20;;;;;;;-139.19;100.00;56970.53;5074132;28;20484;-69
2024/03/25 00:53:02;;;;;;;0.73;0.73;;;;;;;-139.19;100.00;56970.53;5074032;28;20054;-69
2024/03/25 00:56:26;;;;;;;0.10;0.10;;;;;;;-139.19;100.00;56970.53;5090580;28;20035;-67
2024/03/25 00:59:50;;;;;;;1.55;1.27;;;;;;;-139.19;100.00;56970.53;5094282;28;20053;-68
2024/03/25 01:03:14;;;;;;;0.90;0.45;;;;;;;-139.19;100.00;56970.53;5089760;28;20035;-68
2024/03/25 01:06:38;;;;;;;0.10;0.10;;;;;;;-139.19;100.00;56970.53;5073798;28;20052;-68
2024/03/25 01:10:02;;;;;;;0.10;0.10;;;;;;;-139.19;100.00;56970.53;5074048;28;20154;-68
2024/03/25 01:13:25;;;;;;;0.10;0.10;;;;;;;-139.19;100.00;56970.53;5073971;28;20103;-68
2024/03/25 01:16:50;;;;;;;0.10;0.10;;;;;;;-139.19;100.00;56970.53;5073623;28;20086;-68
2024/03/25 01:20:13;;;;;;;0.08;0.08;;;;;;;-139.19;100.00;56970.53;5071132;28;20036;-67
2024/03/25 01:23:37;;;;;;;0.10;0.10;;;;;;;-139.19;100.00;56970.53;5073773;28;20024;-68
2024/03/25 01:27:01;;;;;;;0.03;0.03;;;;;;;-139.19;100.00;56970.53;5073585;28;20031;-67
2024/03/25 01:30:25;;;;;;;0.30;0.30;;;;;;;-139.19;100.00;56970.53;5073592;28;20112;-67
2024/03/25 01:33:49;;;;;;;0.25;0.25;;;;;;;-139.19;100.00;56970.53;5083737;28;20490;-68
2024/03/25 01:37:13;;;;;;;0.00;0.00;;;;;;;-139.19;100.00;56970.53;5093217;28;20035;-67
2024/03/25 01:40:37;;;;;;;0.25;0.25;;;;;;;-139.19;100.00;56970.53;5093271;28;20110;-67
2024/03/25 01:44:02;;;;;;;0.10;0.10;;;;;;;-139.19;100.00;56970.53;5093254;28;20043;-68
2024/03/25 01:47:27;;;;;;;0.55;0.15;;;;;;;-139.19;100.00;56970.53;5091883;28;20502;-68
2024/03/25 01:50:51;;;;;;;0.10;0.10;;;;;;;-139.19;100.00;56970.53;5093719;28;20032;-67
2024/03/25 01:54:16;;;;;;;0.10;0.10;;;;;;;-139.19;100.00;56970.53;5093388;28;20032;-68
2024/03/25 01:57:43;;;;;;;0.10;0.10;;;;;;;-139.19;100.00;56970.53;5092649;28;20085;-68
2024/03/25 02:01:10;;;;;;;0.00;0.00;;;;;;;-139.19;100.00;56970.53;5073192;28;20024;-68
2024/03/25 02:04:34;;;;;;;0.30;0.30;;;;;;;-139.19;100.00;56970.53;5073501;28;20028;-68
2024/03/25 02:07:59;;;;;;;0.10;0.10;;;;;;;-139.19;100.00;56970.53;5073122;28;20044;-68
2024/03/25 02:11:24;;;;;;;1.10;0.30;;;;;;;-139.19;100.00;56970.53;5073184;28;20464;-67
2024/03/25 02:14:49;;;;;;;0.20;0.20;;;;;;;-139.19;100.00;56970.53;5073578;28;20035;-67
2024/03/25 02:18:15;;;;;;;0.17;0.10;;;;;;;-139.19;100.00;56970.53;5075386;28;20028;-68
2024/03/25 02:21:39;;;;;;;1.02;0.40;;;;;;;-139.19;100.00;56970.53;5076843;28;20028;-67
2024/03/25 02:25:08;;;;;;;0.38;0.30;;;;;;;-139.19;100.00;56970.53;5076649;28;20074;-68
2024/03/25 02:28:32;;;;;;;0.10;0.10;;;;;;;-139.19;100.00;56970.53;5077035;28;20537;-67
2024/03/25 02:31:55;;;;;;;0.10;0.10;;;;;;;-139.19;100.00;56970.53;5088380;28;20487;-68
2024/03/25 02:35:20;;;;;;;0.10;0.10;;;;;;;-139.19;100.00;56970.53;5077781;28;20032;-67
2024/03/25 02:38:44;;;;;;;0.28;0.28;;;;;;;-139.19;100.00;56970.53;5056598;28;20082;-67
2024/03/25 02:42:08;;;;;;;0.10;0.10;;;;;;;-139.19;100.00;56970.53;5056592;28;20028;-68
2024/03/25 02:45:33;;;;;;;0.73;0.73;;;;;;;-139.19;100.00;56970.53;5067471;28;20032;-67
2024/03/25 02:48:57;;;;;;;0.00;0.00;;;;;;;-139.19;100.00;56970.53;5056762;28;20577;-67
2024/03/25 02:52:21;;;;;;;0.10;0.10;;;;;;;-139.19;100.00;56970.53;5073743;28;20050;-68
2024/03/25 02:55:44;;;;;;;0.00;0.00;;;;;;;-139.19;100.00;56970.53;5057571;28;20472;-68
2024/03/25 02:59:08;;;;;;;0.30;0.30;;;;;;;-139.19;100.00;56970.53;5076242;28;20028;-68
2024/03/25 03:02:32;;;;;;;0.17;0.17;;;;;;;-139.19;100.00;56970.53;5070112;28;20115;-67
2024/03/25 03:05:56;;;;;;;0.30;0.30;;;;;;;-139.19;100.00;56970.53;5056138;28;20035;-67
2024/03/25 03:09:20;;;;;;;0.10;0.10;;;;;;;-139.19;100.00;56970.53;5064305;28;20067;-68
2024/03/25 03:12:44;;;;;;;0.13;0.13;;;;;;;-139.19;100.00;56970.53;5076051;28;20032;-67
2024/03/25 03:16:08;;;;;;;0.38;0.38;;;;;;;-139.19;100.00;56970.53;5076304;28;20052;-69
2024/03/25 03:19:32;;;;;;;0.30;0.30;;;;;;;-139.19;100.00;56970.53;5069662;28;20040;-69
2024/03/25 03:22:56;;;;;;;0.10;0.10;;;;;;;-139.19;100.00;56970.53;5075799;28;20024;-69
2024/03/25 03:26:19;;;;;;;0.17;0.17;;;;;;;-139.19;100.00;56970.53;5075036;28;20109;-69
2024/03/25 03:29:43;;;;;;;0.05;0.05;;;;;;;-139.19;100.00;56970.53;5075706;28;20111;-69
2024/03/25 03:33:07;;;;;;;0.17;0.17;;;;;;;-139.19;100.00;56970.53;5075849;28;20468;-69
2024/03/25 03:36:34;;;;;;;0.20;0.20;;;;;;;-139.19;100.00;56970.53;5075560;28;20036;-69
2024/03/25 03:39:58;;;;;;;0.10;0.10;;;;;;;-139.19;100.00;56970.53;5075596;28;20480;-69
2024/03/25 03:43:21;;;;;;;0.10;0.10;;;;;;;-139.19;100.00;56970.53;5075454;28;20028;-69
2024/03/25 03:46:45;;;;;;;1.83;0.32;;;;;;;-139.19;100.00;56970.53;5074096;28;20116;-69
2024/03/25 03:50:09;;;;;;;0.20;0.20;;;;;;;-139.19;100.00;56970.53;5075555;28;20055;-69
2024/03/25 03:53:34;;;;;;;0.10;0.10;;;;;;;-139.19;100.00;56970.53;5075271;28;20078;-69
2024/03/25 03:57:01;;;;;;;0.10;0.10;;;;;;;-139.19;100.00;56970.53;5075237;28;20024;-69
2024/03/25 04:00:25;;;;;;;0.20;0.20;;;;;;;-139.19;100.00;56970.53;5075124;28;20025;-69
2024/03/25 04:03:49;;;;;;;0.15;0.15;;;;;;;-139.19;100.00;56970.53;5075051;28;20028;-69
2024/03/25 04:07:14;;;;;;;0.40;0.40;;;;;;;-139.19;100.00;56970.53;5075203;28;20414;-69
2024/03/25 04:10:38;;;;;;;0.20;0.20;;;;;;;-139.19;100.00;56970.53;5082456;28;20495;-69
2024/03/25 04:14:02;;;;;;;0.25;0.25;;;;;;;-139.19;100.00;56970.53;5066555;28;20074;-69
2024/03/25 04:17:26;;;;;;;0.10;0.10;;;;;;;-139.19;100.00;56970.53;5075201;28;20050;-69
2024/03/25 04:20:50;;;;;;;0.10;0.10;;;;;;;-139.19;100.00;56970.53;5081710;28;20085;-69
2024/03/25 04:24:14;;;;;;;0.10;0.10;;;;;;;-139.19;100.00;56970.53;5094265;28;20463;-68
2024/03/25 04:27:38;;;;;;;0.10;0.10;;;;;;;-139.19;100.00;56970.53;5076809;28;20433;-68
2024/03/25 04:31:03;;;;;;;0.10;0.10;;;;;;;-139.19;100.00;56970.53;5068980;28;20495;-68
2024/03/25 04:34:27;;;;;;;0.10;0.10;;;;;;;-139.19;100.00;56970.53;5082445;28;20115;-68
2024/03/25 04:37:51;;;;;;;0.10;0.10;;;;;;;-139.19;100.00;56970.53;5091238;28;20040;-67
2024/03/25 04:41:15;;;;;;;0.15;0.15;;;;;;;-139.19;100.00;56970.53;5072493;28;20427;-68
2024/03/25 04:44:39;;;;;;;0.10;0.10;;;;;;;-139.19;100.00;56970.53;5074171;28;20103;-68
2024/03/25 04:48:03;;;;;;;0.20;0.20;;;;;;;-139.19;100.00;56970.53;5074988;28;20036;-68
2024/03/25 04:51:28;;;;;;;1.10;1.00;;;;;;;-139.19;100.00;56970.53;5078847;28;20032;-68
2024/03/25 04:54:52;;;;;;;0.10;0.10;;;;;;;-139.19;100.00;56970.53;5088907;28;20400;-68
2024/03/25 04:58:16;;;;;;;0.60;0.32;;;;;;;-139.19;100.00;56970.53;5083714;28;20118;-68
2024/03/25 05:01:40;;;;;;;0.10;0.10;;;;;;;-139.19;100.00;56970.53;5093683;28;20483;-67
2024/03/25 05:05:04;;;;;;;0.10;0.10;;;;;;;-139.19;100.00;56970.53;5081146;28;20028;-66
2024/03/25 05:08:28;;;;;;;0.10;0.10;;;;;;;-139.19;100.00;56970.53;5093689;28;20503;-66
2024/03/25 05:11:51;;;;;;;0.10;0.10;;;;;;;-139.19;100.00;56970.53;5094131;28;20035;-66
2024/03/25 05:15:15;;;;;;;0.20;0.20;;;;;;;-139.19;100.00;56970.53;5094000;28;20387;-66
2024/03/25 05:18:39;;;;;;;0.17;0.17;;;;;;;-139.19;100.00;56970.53;5094074;28;20032;-66
2024/03/25 05:22:03;;;;;;;0.10;0.10;;;;;;;-139.19;100.00;56970.53;5093934;28;20056;-65
2024/03/25 05:25:28;;;;;;;3.83;1.60;;;;;;;-139.19;100.00;56970.53;5093727;28;20028;-65
2024/03/25 05:28:53;;;;;;;0.10;0.10;;;;;;;-139.19;100.00;56970.53;5093898;28;20451;-65
2024/03/25 05:32:17;;;;;;;0.35;0.35;;;;;;;-139.19;100.00;56970.53;5093581;28;20028;-65
2024/03/25 05:35:41;;;;;;;0.10;0.10;;;;;;;-139.19;100.00;56970.53;5093607;28;20081;-65
2024/03/25 05:39:05;;;;;;;0.10;0.10;;;;;;;-139.19;100.00;56970.53;5093457;28;20033;-65
2024/03/25 05:42:29;;;;;;;0.45;0.40;;;;;;;-139.19;100.00;56970.53;5093457;28;20113;-66
2024/03/25 05:45:53;;;;;;;0.20;0.20;;;;;;;-139.19;100.00;56970.53;5092079;28;20043;-65
2024/03/25 05:49:17;;;;;;;0.10;0.10;;;;;;;-139.19;100.00;56970.53;5093116;28;20077;-65
2024/03/25 05:52:41;;;;;;;0.20;0.20;;;;;;;-139.19;100.00;56970.53;5093552;28;20475;-65
2024/03/25 05:56:05;;;;;;;0.10;0.10;;;;;;;-139.19;100.00;56970.53;5093287;28;20020;-65
2024/03/25 05:59:29;;;;;;;0.28;0.28;;;;;;;-139.19;100.00;56970.53;5093450;28;20495;-66
2024/03/25 06:02:53;;;;;;;0.10;0.10;;;;;;;-139.19;100.00;56970.53;5093449;28;20467;-66
2024/03/25 06:06:17;;;;;;;0.10;0.10;;;;;;;-139.19;100.00;56970.53;5093524;28;20168;-66
2024/03/25 06:09:41;;;;;;;0.13;0.13;;;;;;;-139.19;100.00;56970.53;5093272;28;20476;-66
2024/03/25 06:13:05;;;;;;;0.10;0.10;;;;;;;-139.19;100.00;56970.53;5093280;28;20028;-66
2024/03/25 06:16:29;;;;;;;0.20;0.20;;;;;;;-139.19;100.00;56970.53;5093253;28;20032;-66
2024/03/25 06:19:53;;;;;;;0.08;0.08;;;;;;;-139.19;100.00;56970.53;5093169;28;20110;-66
2024/03/25 06:23:23;;;;;;;5.47;1.08;;;;;;;-139.19;100.00;56970.53;5093144;28;20028;-66
2024/03/25 06:26:48;;;;;;;0.10;0.10;;;;;;;-139.19;100.00;56970.53;5093113;28;20372;-66
2024/03/25 06:37:36;;;;;;;0.55;0.55;;;;;;;-139.19;100.00;56970.53;5093071;28;20030;-66
2024/03/25 06:41:00;;;;;;;0.10;0.10;;;;;;;-139.19;100.00;56970.53;5093021;28;20039;-66
2024/03/25 06:44:24;;;;;;;0.17;0.17;;;;;;;-139.19;100.00;56970.53;5093059;28;20060;-66
2024/03/25 06:47:48;;;;;;;0.30;0.30;;;;;;;-139.19;100.00;56970.53;5091726;28;20513;-66
2024/03/25 06:51:12;;;;;;;0.10;0.10;;;;;;;-139.19;100.00;56970.53;5092865;28;20024;-65
2024/03/25 06:54:37;;;;;;;0.47;0.47;;;;;;;-139.19;100.00;56970.53;5092941;28;20039;-66
2024/03/25 06:58:00;;;;;;;0.35;0.35;;;;;;;-139.19;100.00;56970.53;5093114;28;20156;-65
2024/03/25 07:01:24;;;;;;;2.90;1.30;;;;;;;-139.19;100.00;56970.53;5092917;28;20032;-66
2024/03/25 07:04:48;;;;;;;0.93;0.57;;;;;;;-139.19;100.00;56970.53;5096708;28;20032;-66
2024/03/25 07:08:21;;;;;;;0.73;0.73;;;;;;;-139.19;100.00;56970.53;5096410;28;20081;-66
2024/03/25 07:11:46;;;;;;;2.10;1.02;;;;;;;-139.19;100.00;56970.53;5096493;28;20040;-65
2024/03/25 07:15:10;;;;;;;0.47;0.47;;;;;;;-139.19;100.00;56970.53;5096532;28;20455;-66
2024/03/25 07:18:34;;;;;;;0.85;0.65;;;;;;;-139.19;100.00;56970.53;5096191;28;20398;-66
2024/03/25 07:21:58;;;;;;;0.70;0.63;;;;;;;-139.19;100.00;56970.53;5078022;28;20024;-66
2024/03/25 07:25:22;;;;;;;0.30;0.30;;;;;;;-139.19;100.00;56970.53;5096371;28;20043;-66
2024/03/25 07:28:46;;;;;;;0.10;0.10;;;;;;;-139.19;100.00;56970.53;5096007;28;20031;-66
2024/03/25 07:32:10;;;;;;;0.20;0.20;;;;;;;-139.19;100.00;56970.53;5095899;28;20028;-66
2024/03/25 07:35:35;;;;;;;0.38;0.38;;;;;;;-139.19;100.00;56970.53;5095891;28;20062;-66
2024/03/25 07:38:59;;;;;;;0.43;0.43;;;;;;;-139.19;100.00;56970.53;5095988;28;20039;-66
2024/03/25 07:42:23;;;;;;;0.30;0.30;;;;;;;-139.19;100.00;56970.53;5096017;28;20498;-66
2024/03/25 07:45:46;;;;;;;0.22;0.22;;;;;;;-139.19;100.00;56970.53;5095721;28;20024;-66
2024/03/25 07:49:10;;;;;;;0.63;0.63;;;;;;;-139.19;100.00;56970.53;5095648;28;20123;-66
2024/03/25 07:52:39;;;;;;;0.75;0.20;;;;;;;-139.19;100.00;56970.53;5095520;28;20024;-66
2024/03/25 07:56:04;;;;;;;1.77;0.52;;;;;;;-139.19;100.00;56970.53;5095856;28;20452;-66
2024/03/25 07:59:28;;;;;;;0.20;0.20;;;;;;;-139.19;100.00;56970.53;5095619;28;20031;-65
2024/03/25 08:02:52;;;;;;;0.10;0.10;;;;;;;-139.19;100.00;56970.53;5095593;28;20043;-66
2024/03/25 08:06:23;;;;;;;0.20;0.20;;;;;;;-139.19;100.00;56970.53;5095220;28;20099;-66
2024/03/25 08:09:47;;;;;;;0.03;0.03;;;;;;;-139.19;100.00;56970.53;5095174;28;20067;-66
2024/03/25 08:13:11;;;;;;;0.10;0.10;;;;;;;-139.19;100.00;56970.53;5094841;28;20105;-66
2024/03/25 08:16:35;;;;;;;0.30;0.30;;;;;;;-139.19;100.00;56970.53;5095055;28;20032;-66
2024/03/25 08:19:59;;;;;;;0.20;0.20;;;;;;;-139.19;100.00;56970.53;5094988;28;20070;-66
2024/03/25 08:23:22;;;;;;;0.40;0.40;;;;;;;-139.19;100.00;56970.53;5095040;28;20107;-66
2024/03/25 08:26:46;;;;;;;0.52;0.52;;;;;;;-139.19;100.00;56970.53;5094889;28;20032;-66
2024/03/25 08:30:10;;;;;;;0.38;0.38;;;;;;;-139.19;100.00;56970.53;5094825;28;20035;-66
2024/03/25 08:33:34;;;;;;;0.38;0.28;;;;;;;-139.19;100.00;56970.53;5094648;28;20032;-66
2024/03/25 08:36:58;;;;;;;0.85;0.50;;;;;;;-139.19;100.00;56970.53;5094718;28;20028;-66
2024/03/25 08:40:22;;;;;;;0.03;0.03;;;;;;;-139.19;100.00;56970.53;5094614;28;20483;-66
2024/03/25 08:43:46;;;;;;;0.47;0.47;;;;;;;-139.19;100.00;56970.53;5094866;28;20464;-66
2024/03/25 08:47:09;;;;;;;0.28;0.28;;;;;;;-139.19;100.00;56970.53;5093375;28;20052;-66
2024/03/25 08:50:33;;;;;;;0.93;0.93;;;;;;;-139.19;100.00;56970.53;5094503;28;20387;-66
2024/03/25 08:53:57;;;;;;;2.25;0.55;;;;;;;-139.19;100.00;56970.53;5094411;28;20032;-66
2024/03/25 08:57:21;;;;;;;0.20;0.20;;;;;;;-139.19;100.00;56970.53;5094287;28;20024;-65
2024/03/25 09:00:45;;;;;;;0.30;0.30;;;;;;;-139.19;100.00;56970.53;5094181;28;20056;-66
2024/03/25 09:04:09;;;;;;;0.35;0.35;;;;;;;-139.19;100.00;56970.53;5094327;28;20506;-66
2024/03/25 09:07:33;;;;;;;0.90;0.50;;;;;;;-139.19;100.00;56970.53;5094066;28;20035;-66
2024/03/25 09:11:03;;;;;;;0.28;0.28;;;;;;;-139.19;100.00;56970.53;5094109;28;20102;-66
2024/03/25 09:14:27;;;;;;;0.10;0.10;;;;;;;-139.19;100.00;56970.53;5093996;28;20023;-79
2024/03/25 09:17:51;;;;;;;0.28;0.22;;;;;;;-139.19;100.00;56970.53;5094175;28;20479;-78
2024/03/25 09:21:15;;;;;;;0.88;0.50;;;;;;;-139.19;100.00;56970.53;5093881;28;20016;-66
2024/03/25 09:24:39;;;;;;;0.28;0.28;;;;;;;-139.19;100.00;56970.53;5093173;28;20020;-66
2024/03/25 09:28:03;;;;;;;0.55;0.47;;;;;;;-139.19;100.00;56970.53;5093776;28;20032;-66
2024/03/25 09:31:26;;;;;;;0.25;0.25;;;;;;;-139.19;100.00;56970.53;5093617;28;20107;-66
2024/03/25 09:34:51;;;;;;;0.20;0.20;;;;;;;-139.19;100.00;56970.53;5093675;28;20032;-66
2024/03/25 09:38:15;;;;;;;1.20;0.50;;;;;;;-139.19;100.00;56970.53;5093882;28;20476;-67
2024/03/25 09:41:42;;;;;;;0.20;0.20;;;;;;;-139.19;100.00;56970.53;5093461;28;20028;-64
2024/03/25 09:45:07;;;;;;;0.57;0.57;;;;;;;-139.19;100.00;56970.53;5093443;28;20036;-78
2024/03/25 09:48:45;;;;;;;;;;;;;;;-139.19;100.00;56970.53;5093829;28;20044;-64
2024/03/25 09:52:09;;;;;;;0.00;0.00;;;;;;;-139.19;100.00;56970.53;5093497;28;19916;-64
2024/03/25 09:55:33;;;;;;;0.10;0.10;;;;;;;-139.19;100.00;56970.53;5093519;28;20050;-65
2024/03/25 09:58:58;;;;;;;0.20;0.20;;;;;;;-139.19;100.00;56970.53;5093451;28;20035;-65
2024/03/25 10:02:26;;;;;;;0.30;0.30;;;;;;;-139.19;100.00;56970.53;5093475;28;20261;-64
2024/03/25 10:05:50;;;;;;;0.32;0.32;;;;;;;-139.19;100.00;56970.53;5093444;28;20024;-66
2024/03/25 10:09:19;;;;;;;0.17;0.17;;;;;;;-139.19;100.00;56970.53;5093324;28;20106;-67
2024/03/25 10:12:45;;;;;;;0.28;0.28;;;;;;;-139.19;100.00;56970.53;5093237;28;20039;-67
2024/03/25 10:16:13;;;;;;;3.70;0.52;;;;;;;-139.19;100.00;56970.53;5093328;28;20035;-67
2024/03/25 10:19:37;;;;;;;0.70;0.47;;;;;;;-139.19;100.00;56970.53;5093171;28;20062;-67
2024/03/25 10:23:01;;;;;;;0.17;0.17;;;;;;;-139.19;100.00;56970.53;5093424;28;20502;-66
2024/03/25 10:26:31;;;;;;;0.55;0.50;;;;;;;-139.19;100.00;56970.53;5093222;28;20039;-66
2024/03/25 10:30:02;;;;;;;0.05;0.05;;;;;;;-139.19;100.00;56970.53;5093017;28;20043;-66
2024/03/25 10:33:26;;;;;;;0.00;0.00;;;;;;;-139.19;100.00;56970.53;5093361;28;20043;-67
2024/03/25 10:36:52;;;;;;;0.20;0.20;;;;;;;-139.19;100.00;56970.53;5095331;28;20497;-66
2024/03/25 10:40:17;;;;;;;0.20;0.20;;;;;;;-139.19;100.00;56970.53;5097006;28;20019;-66
2024/03/25 10:43:42;;;;;;;0.00;0.00;;;;;;;-139.19;100.00;56970.53;5096954;28;20490;-66
2024/03/25 10:47:14;;;;;;;0.08;0.08;;;;;;;-139.19;100.00;56970.53;5095589;28;20048;-66
2024/03/25 10:50:49;;;;;;;0.32;0.32;;;;;;;-139.19;100.00;56970.53;5096733;28;20119;-66
2024/03/25 10:54:17;;;;;;;0.00;0.00;;;;;;;-139.19;100.00;56970.53;5096725;28;20479;-67
2024/03/25 10:57:41;;;;;;;0.40;0.40;;;;;;;-139.19;100.00;56970.53;5096662;28;20058;-67
2024/03/25 11:01:05;;;;;;;0.43;0.43;;;;;;;-139.19;100.00;56970.53;5096630;28;20383;-66
2024/03/25 11:04:30;;;;;;;0.10;0.10;;;;;;;-139.19;100.00;56970.53;5096566;28;20107;-67
2024/03/25 11:08:14;;;;;;;0.00;0.00;;;;;;;-139.19;100.00;56970.53;5096518;28;20036;-66
2024/03/25 11:11:38;;;;;;;0.10;0.10;;;;;;;-139.19;100.00;56970.53;5096370;28;20052;-66
2024/03/25 11:15:03;;;;;;;0.00;0.00;;;;;;;-139.19;100.00;56970.53;5096420;28;20499;-67
2024/03/25 11:18:29;;;;;;;0.00;0.00;;;;;;;-139.19;100.00;56970.53;5096502;28;20028;-67
2024/03/25 11:22:10;;;;;;;0.08;0.08;;;;;;;-139.19;100.00;56970.53;5096405;28;20527;-67
2024/03/25 11:25:34;;;;;;;0.00;0.00;;;;;;;-139.19;100.00;56970.53;5096227;28;20028;-66
2024/03/25 11:28:57;;;;;;;1.00;0.75;;;;;;;-139.19;100.00;56970.53;5096036;28;20369;-66
2024/03/25 11:32:24;;;;;;;0.00;0.00;;;;;;;-139.19;100.00;56970.53;5095920;28;20369;-67
2024/03/25 11:35:49;;;;;;;0.00;0.00;;;;;;;-139.19;100.00;56970.53;5092539;28;20386;-67
2024/03/25 11:39:13;;;;;;;1.85;0.20;;;;;;;-139.19;100.00;56970.53;5068841;28;20036;-67
2024/03/25 11:42:42;;;;;;;0.45;0.45;;;;;;;-139.19;100.00;56970.53;5074803;28;20472;-66
2024/03/25 11:46:06;;;;;;;0.80;0.60;;;;;;;-139.19;100.00;56970.53;5074805;28;20399;-66
2024/03/25 11:49:30;;;;;;;1.00;0.57;;;;;;;-139.19;100.00;56970.53;5074057;28;20129;-66
2024/03/25 11:52:57;;;;;;;0.03;0.03;;;;;;;-139.19;100.00;56970.53;5074108;28;20107;-67
2024/03/25 11:56:21;;;;;;;0.00;0.00;;;;;;;-139.19;100.00;56970.53;5074808;28;20082;-67
2024/03/25 11:59:45;;;;;;;0.00;0.00;;;;;;;-139.19;100.00;56970.53;5074803;28;20430;-66
2024/03/25 12:03:08;;;;;;;0.00;0.00;;;;;;;-139.19;100.00;56970.53;5074664;28;20380;-66
2024/03/25 12:06:32;;;;;;;2.05;0.60;;;;;;;-139.19;100.00;56970.53;5073872;28;20028;-66
2024/03/25 12:13:41;;;;;;;0.00;0.00;;;;;;;-139.19;100.00;56970.53;5074741;28;20040;-66
2024/03/25 12:17:05;;;;;;;0.00;0.00;;;;;;;-139.19;100.00;56970.53;5074315;28;20020;-67
2024/03/25 12:20:30;;;;;;;0.20;0.20;;;;;;;-139.19;100.00;56970.53;5074321;28;20094;-67
2024/03/25 12:23:54;;;;;;;0.00;0.00;;;;;;;-139.19;100.00;56970.53;5074245;28;20043;-66
2024/03/25 12:27:18;;;;;;;2.38;0.52;;;;;;;-139.19;100.00;56970.53;5073979;28;20020;-67
2024/03/25 12:30:55;;;;;;;0.00;0.00;;;;;;;-139.19;100.00;56970.53;5074108;28;20052;-66
2024/03/25 12:34:19;;;;;;;0.00;0.00;;;;;;;-139.19;100.00;56970.53;5073953;28;20029;-66
2024/03/25 12:37:44;;;;;;;3.83;0.80;;;;;;;-139.19;100.00;56970.53;5073367;28;20040;-66
2024/03/25 12:41:12;;;;;;;0.00;0.00;;;;;;;-139.19;100.00;56970.53;5074003;28;20039;-66
2024/03/25 12:44:43;;;;;;;0.22;0.22;;;;;;;-139.19;100.00;56970.53;5055903;28;20060;-66
2024/03/25 12:48:07;;;;;;;3.85;0.80;;;;;;;-139.19;100.00;56970.53;5072358;28;20093;-75
2024/03/25 12:51:31;;;;;;;0.10;0.10;;;;;;;-139.19;100.00;56970.53;5073136;28;20381;-75
2024/03/25 12:54:55;;;;;;;1.90;0.60;;;;;;;-139.19;100.00;56970.53;5073853;28;20031;-75
2024/03/25 12:58:19;;;;;;;0.10;0.10;;;;;;;-139.19;100.00;56970.53;5073534;28;20024;-66
2024/03/25 13:01:44;;;;;;;0.43;0.43;;;;;;;-139.19;100.00;56970.53;5073264;28;20391;-66
2024/03/25 13:05:08;;;;;;;0.15;0.15;;;;;;;-139.19;100.00;56970.53;5073163;28;20025;-66
2024/03/25 13:08:31;;;;;;;0.10;0.10;;;;;;;-139.19;100.00;56970.53;5073958;28;20107;-66
2024/03/25 13:11:56;;;;;;;0.10;0.10;;;;;;;-139.19;100.00;56970.53;5073421;28;20107;-66
2024/03/25 13:15:20;;;;;;;1.65;0.50;;;;;;;-139.19;100.00;56970.53;5073064;28;20040;-66
2024/03/25 13:18:44;;;;;;;0.00;0.00;;;;;;;-139.19;100.00;56970.53;5073199;28;20068;-66
2024/03/25 13:22:08;;;;;;;0.00;0.00;;;;;;;-139.19;100.00;56970.53;5072342;28;20480;-66
2024/03/25 13:25:31;;;;;;;0.10;0.10;;;;;;;-139.19;100.00;56970.53;5073066;28;20033;-66
2024/03/25 13:28:55;;;;;;;0.10;0.10;;;;;;;-139.19;100.00;56970.53;5073075;28;20115;-66
2024/03/25 13:32:19;;;;;;;0.10;0.10;;;;;;;-139.19;100.00;56970.53;5072789;28;20039;-66
2024/03/25 13:35:43;;;;;;;0.22;0.22;;;;;;;-139.19;100.00;56970.53;5072500;28;20028;-69
2024/03/25 13:39:08;;;;;;;0.00;0.00;;;;;;;-139.19;100.00;56970.53;5072780;28;20024;-76
2024/03/25 13:42:32;;;;;;;0.63;0.63;;;;;;;-139.19;100.00;56970.53;5072919;28;20017;-65
2024/03/25 13:45:56;;;;;;;0.10;0.10;;;;;;;-139.19;100.00;56970.53;5073101;28;20395;-67
2024/03/25 13:49:20;;;;;;;0.00;0.00;;;;;;;-139.19;100.00;56970.53;5072609;28;20036;-67
2024/03/25 13:52:44;;;;;;;0.00;0.00;;;;;;;-139.19;100.00;56970.53;5072606;28;20032;-76
2024/03/25 13:56:08;;;;;;;0.00;0.00;;;;;;;-139.19;100.00;56970.53;5072841;28;20025;-76
2024/03/25 13:59:32;;;;;;;0.03;0.03;;;;;;;-139.19;100.00;56970.53;5072852;28;20066;-75
2024/03/25 14:02:56;;;;;;;0.08;0.08;;;;;;;-139.19;100.00;56970.53;5072712;28;20074;-67
2024/03/25 14:06:20;;;;;;;0.70;0.43;;;;;;;-139.19;100.00;56970.53;5072114;28;20480;-66
2024/03/25 14:09:44;;;;;;;0.10;0.10;;;;;;;-139.19;100.00;56970.53;5072890;28;20032;-66
2024/03/25 14:13:08;;;;;;;0.10;0.10;;;;;;;-139.19;100.00;56970.53;5071491;28;20167;-66
2024/03/25 14:16:31;;;;;;;0.00;0.00;;;;;;;-139.19;100.00;56970.53;5077023;28;20035;-66
2024/03/25 14:19:56;;;;;;;0.00;0.00;;;;;;;-139.19;100.00;56970.53;5075599;28;20068;-66
2024/03/25 14:23:20;;;;;;;0.30;0.30;;;;;;;-139.19;100.00;56970.53;5076882;28;20021;-66
2024/03/25 14:26:44;;;;;;;0.00;0.00;;;;;;;-139.19;100.00;56970.53;5064286;28;20033;-66
2024/03/25 14:30:10;;;;;;;0.03;0.03;;;;;;;-139.19;100.00;56970.53;5075636;28;20032;-66
2024/03/25 14:33:34;;;;;;;0.15;0.15;;;;;;;-139.19;100.00;56970.53;5077007;28;20472;-66
2024/03/25 14:37:01;;;;;;;2.17;0.73;;;;;;;-139.19;100.00;56970.53;5076812;28;20121;-66
2024/03/25 14:40:25;;;;;;;0.00;0.00;;;;;;;-139.19;100.00;56970.53;5076717;28;20064;-66
2024/03/25 14:43:48;;;;;;;0.00;0.00;;;;;;;-139.19;100.00;56970.53;5076928;28;20103;-66
2024/03/25 14:47:12;;;;;;;0.00;0.00;;;;;;;-139.19;100.00;56970.53;5075340;28;20053;-66
2024/03/25 14:50:36;;;;;;;0.10;0.10;;;;;;;-139.19;100.00;56970.53;5076528;28;20037;-66
2024/03/25 14:54:00;;;;;;;0.43;0.43;;;;;;;-139.19;100.00;56970.53;5076591;28;20502;-66
2024/03/25 14:57:24;;;;;;;0.00;0.00;;;;;;;-139.19;100.00;56970.53;5076526;28;20377;-66
2024/03/25 15:00:48;;;;;;;0.03;0.03;;;;;;;-139.19;100.00;56970.53;5076306;28;20032;-66
2024/03/25 15:04:12;;;;;;;0.17;0.17;;;;;;;-139.19;100.00;56970.53;5076312;28;20036;-66
2024/03/25 15:07:35;;;;;;;0.75;0.47;;;;;;;-139.19;100.00;56970.53;5076212;28;20468;-66
2024/03/25 15:10:59;;;;;;;0.30;0.28;;;;;;;-139.19;100.00;56970.53;5076126;28;20024;-66
2024/03/25 15:14:24;;;;;;;0.10;0.10;;;;;;;-139.19;100.00;56970.53;5076376;28;20165;-66
2024/03/25 15:17:48;;;;;;;0.00;0.00;;;;;;;-139.19;100.00;56970.53;5076259;28;20036;-66
2024/03/25 15:21:12;;;;;;;0.28;0.28;;;;;;;-139.19;100.00;56970.53;5076000;28;20024;-66
2024/03/25 15:24:36;;;;;;;0.00;0.00;;;;;;;-139.19;100.00;56970.53;5075526;28;20036;-66
2024/03/25 15:28:00;;;;;;;0.43;0.43;;;;;;;-139.19;100.00;56970.53;5075883;28;20040;-66
2024/03/25 15:31:24;;;;;;;0.00;0.00;;;;;;;-139.19;100.00;56970.53;5075937;28;20074;-66
2024/03/25 15:34:48;;;;;;;0.00;0.00;;;;;;;-139.19;100.00;56970.53;5075735;28;20110;-66
2024/03/25 15:38:11;;;;;;;0.08;0.08;;;;;;;-139.19;100.00;56970.53;5075713;28;20033;-66
2024/03/25 15:41:35;;;;;;;0.00;0.00;;;;;;;-139.19;100.00;56970.53;5075639;28;20063;-66